Time;durP1;ratioP1;P1;durP2;ratioP2;P2;SDS_P1;SDS_P2;PMS_P1;PMS_P2;Temp;Humidity;BMP_temperature;BMP_pressure;BME280_temperature;BME280_humidity;BME280_pressure;Samples;Min_cycle;Max_cycle;Signal;HPM_P1;HPM_P2
2022/04/27 00:00:39;;;;;;;5.25;2.90;;;8.60;63.90;;;;;;5095568;28;20020;-69
2022/04/27 00:03:05;;;;;;;3.42;2.60;;;8.60;64.00;;;;;;5094853;28;20030;-69
2022/04/27 00:05:32;;;;;;;4.78;2.72;;;8.60;63.90;;;;;;5099818;28;20032;-69
2022/04/27 00:07:58;;;;;;;4.50;2.95;;;8.60;64.10;;;;;;5100806;28;20027;-68
2022/04/27 00:10:24;;;;;;;5.72;3.10;;;8.60;64.20;;;;;;5101472;28;20024;-68
2022/04/27 00:12:50;;;;;;;4.38;3.00;;;8.60;64.20;;;;;;5099018;28;20043;-69
2022/04/27 00:15:17;;;;;;;5.25;3.08;;;8.60;64.30;;;;;;5093201;28;20513;-70
2022/04/27 00:17:42;;;;;;;5.25;3.00;;;8.60;64.30;;;;;;5091836;28;20107;-68
2022/04/27 00:20:09;;;;;;;4.40;2.50;;;8.60;64.30;;;;;;5088828;28;20088;-69
2022/04/27 00:22:36;;;;;;;3.70;2.45;;;8.60;64.30;;;;;;5101988;28;20389;-70
2022/04/27 00:25:03;;;;;;;3.58;2.45;;;8.50;64.30;;;;;;5090752;28;20023;-69
2022/04/27 00:27:30;;;;;;;4.47;2.67;;;8.50;64.30;;;;;;5081981;28;20414;-70
2022/04/27 00:29:56;;;;;;;4.25;2.58;;;8.50;64.40;;;;;;5090570;28;20035;-69
2022/04/27 00:32:22;;;;;;;3.75;2.15;;;8.50;64.40;;;;;;5085518;28;20089;-69
2022/04/27 00:34:48;;;;;;;3.55;2.30;;;8.50;64.40;;;;;;5090617;28;20032;-69
2022/04/27 00:37:14;;;;;;;5.78;2.88;;;8.50;64.30;;;;;;5087917;28;20020;-70
2022/04/27 00:39:40;;;;;;;4.72;2.40;;;8.50;64.50;;;;;;5086296;28;20056;-71
2022/04/27 00:42:12;;;;;;;3.65;2.45;;;8.50;64.50;;;;;;5090323;28;20467;-70
2022/04/27 00:44:38;;;;;;;4.45;2.53;;;8.50;64.40;;;;;;5083286;28;20039;-70
2022/04/27 00:47:04;;;;;;;4.10;2.40;;;8.50;64.30;;;;;;5087802;28;20055;-71
2022/04/27 00:49:29;;;;;;;3.97;2.35;;;8.50;64.20;;;;;;5081245;28;20146;-70
2022/04/27 00:51:55;;;;;;;5.50;2.80;;;8.50;64.20;;;;;;5085160;28;20036;-70
2022/04/27 00:54:22;;;;;;;6.35;2.70;;;8.50;64.40;;;;;;5091135;28;20103;-69
2022/04/27 00:56:51;;;;;;;5.35;2.97;;;8.50;64.50;;;;;;5088278;28;20070;-69
2022/04/27 00:59:17;;;;;;;4.07;2.35;;;8.40;64.70;;;;;;5079738;28;20028;-68
2022/04/27 01:01:43;;;;;;;4.43;2.45;;;8.40;64.60;;;;;;5088835;28;20038;-70
2022/04/27 01:04:08;;;;;;;4.75;2.50;;;8.40;64.60;;;;;;5089789;28;20028;-70
2022/04/27 01:06:38;;;;;;;2.97;2.20;;;8.50;64.60;;;;;;5089050;28;20512;-69
2022/04/27 01:09:04;;;;;;;3.50;2.17;;;8.50;64.50;;;;;;5106170;28;20042;-69
2022/04/27 01:11:33;;;;;;;3.60;2.50;;;8.50;64.40;;;;;;5088495;28;20028;-69
2022/04/27 01:13:59;;;;;;;3.75;2.50;;;8.50;64.40;;;;;;5089746;28;20600;-68
2022/04/27 01:16:25;;;;;;;4.80;2.42;;;8.50;64.40;;;;;;5076639;28;20022;-69
2022/04/27 01:18:51;;;;;;;3.88;2.42;;;8.40;64.40;;;;;;5088330;28;20047;-69
2022/04/27 01:21:17;;;;;;;4.75;2.50;;;8.40;64.30;;;;;;5088753;28;20020;-69
2022/04/27 01:23:43;;;;;;;4.53;2.58;;;8.40;64.50;;;;;;5088923;28;20667;-70
2022/04/27 01:26:09;;;;;;;4.53;2.80;;;8.30;64.60;;;;;;5080436;28;20509;-70
2022/04/27 01:28:36;;;;;;;4.65;2.85;;;8.30;64.60;;;;;;5089676;28;20077;-70
2022/04/27 01:31:04;;;;;;;3.92;2.60;;;8.30;64.70;;;;;;5078879;28;20031;-70
2022/04/27 01:33:30;;;;;;;6.82;2.53;;;8.30;64.80;;;;;;5092633;28;20032;-71
2022/04/27 01:35:58;;;;;;;4.30;2.72;;;8.30;64.80;;;;;;5107918;28;20040;-70
2022/04/27 01:38:24;;;;;;;6.03;2.60;;;8.20;64.70;;;;;;5082985;28;20744;-70
2022/04/27 01:40:53;;;;;;;3.80;2.60;;;8.20;64.70;;;;;;5084508;28;20056;-69
2022/04/27 01:43:19;;;;;;;4.80;2.80;;;8.20;64.80;;;;;;5089705;28;20111;-71
2022/04/27 01:45:45;;;;;;;3.22;2.30;;;8.20;64.80;;;;;;5090043;28;20091;-72
2022/04/27 01:48:11;;;;;;;3.92;2.88;;;8.10;64.90;;;;;;5089789;28;20016;-71
2022/04/27 01:50:38;;;;;;;4.03;2.60;;;8.10;65.00;;;;;;5085227;28;20032;-71
2022/04/27 01:55:50;;;;;;;3.97;2.70;;;8.00;65.00;;;;;;5082262;28;20039;-71
2022/04/27 01:58:15;;;;;;;4.18;2.80;;;8.00;65.20;;;;;;5083192;28;20156;-70
2022/04/27 02:00:41;;;;;;;4.65;2.92;;;8.00;65.20;;;;;;5096363;28;20016;-72
2022/04/27 02:03:06;;;;;;;4.60;2.85;;;8.00;65.40;;;;;;5093219;28;20040;-71
2022/04/27 02:05:32;;;;;;;4.63;3.00;;;8.00;65.40;;;;;;5090029;28;20172;-71
2022/04/27 02:07:57;;;;;;;5.65;2.90;;;8.00;65.50;;;;;;5079708;28;20020;-71
2022/04/27 02:10:23;;;;;;;3.83;2.65;;;8.00;65.50;;;;;;5087011;28;20042;-71
2022/04/27 02:12:49;;;;;;;5.43;3.30;;;8.00;66.10;;;;;;5082576;28;20031;-71
2022/04/27 02:15:15;;;;;;;5.45;2.80;;;8.00;65.40;;;;;;5087803;28;20016;-71
2022/04/27 02:17:40;;;;;;;5.38;2.88;;;8.00;65.40;;;;;;5082617;28;20346;-71
2022/04/27 02:20:06;;;;;;;4.97;2.90;;;8.00;65.50;;;;;;5087273;28;20062;-71
2022/04/27 02:22:33;;;;;;;6.65;3.25;;;8.00;65.50;;;;;;5083444;28;20059;-72
2022/04/27 02:25:01;;;;;;;6.05;3.03;;;8.00;65.60;;;;;;5084075;28;20043;-72
2022/04/27 02:27:27;;;;;;;7.10;3.05;;;8.00;65.70;;;;;;5089177;28;20057;-70
2022/04/27 02:29:52;;;;;;;4.28;2.92;;;8.00;65.60;;;;;;5089870;28;20498;-70
2022/04/27 02:32:18;;;;;;;5.00;2.95;;;8.00;65.60;;;;;;5082029;28;20059;-71
2022/04/27 02:34:44;;;;;;;4.00;2.90;;;8.00;65.70;;;;;;5086958;28;20012;-70
2022/04/27 02:37:09;;;;;;;4.45;2.65;;;7.90;65.70;;;;;;5094634;28;20024;-70
2022/04/27 02:39:35;;;;;;;4.28;3.00;;;7.90;65.70;;;;;;5088261;28;20639;-70
2022/04/27 02:42:00;;;;;;;4.07;3.10;;;7.90;65.80;;;;;;5088438;28;20024;-69
2022/04/27 02:44:26;;;;;;;4.43;3.10;;;7.90;65.90;;;;;;5088649;28;20059;-70
2022/04/27 02:46:51;;;;;;;5.75;3.15;;;7.90;66.00;;;;;;5086430;28;20031;-71
2022/04/27 02:52:01;;;;;;;3.90;3.00;;;7.80;66.10;;;;;;5086164;28;20552;-70
2022/04/27 02:54:26;;;;;;;5.32;3.20;;;7.80;66.10;;;;;;5085797;28;20036;-71
2022/04/27 02:56:52;;;;;;;3.83;2.75;;;7.70;66.20;;;;;;5088504;28;20025;-71
2022/04/27 02:59:17;;;;;;;6.13;3.40;;;7.70;66.30;;;;;;5082836;28;20024;-70
2022/04/27 03:01:43;;;;;;;4.90;3.10;;;7.70;66.30;;;;;;5088604;28;20033;-67
2022/04/27 03:04:09;;;;;;;4.95;2.85;;;7.70;66.40;;;;;;5083657;28;20024;-70
2022/04/27 03:06:35;;;;;;;4.90;3.00;;;7.70;66.40;;;;;;5073181;28;20021;-70
2022/04/27 03:09:01;;;;;;;5.72;3.30;;;7.70;66.50;;;;;;5087662;28;20036;-69
2022/04/27 03:11:26;;;;;;;4.60;3.40;;;7.70;66.60;;;;;;5085414;28;20391;-69
2022/04/27 03:13:52;;;;;;;4.60;3.15;;;7.60;66.70;;;;;;5087447;28;20612;-69
2022/04/27 03:16:17;;;;;;;5.68;3.58;;;7.60;66.80;;;;;;5084008;28;20581;-70
2022/04/27 03:18:43;;;;;;;4.80;3.30;;;7.60;67.50;;;;;;5083438;28;20027;-70
2022/04/27 03:21:10;;;;;;;5.30;3.47;;;7.60;67.00;;;;;;5070533;28;20035;-71
2022/04/27 03:23:35;;;;;;;4.68;3.25;;;7.60;67.00;;;;;;5084369;28;20031;-73
2022/04/27 03:26:02;;;;;;;5.60;3.20;;;7.60;66.90;;;;;;5086897;28;20031;-68
2022/04/27 03:28:28;;;;;;;4.78;3.33;;;7.60;66.90;;;;;;5087511;28;20032;-70
2022/04/27 03:30:53;;;;;;;4.93;3.20;;;7.60;67.00;;;;;;5079693;28;20035;-70
2022/04/27 03:33:19;;;;;;;5.60;3.40;;;7.60;67.00;;;;;;5088044;28;20028;-72
2022/04/27 03:35:45;;;;;;;4.93;3.15;;;7.60;66.90;;;;;;5079752;28;20020;-73
2022/04/27 03:38:10;;;;;;;5.50;3.10;;;7.60;66.80;;;;;;5083455;28;20028;-72
2022/04/27 03:40:37;;;;;;;6.43;3.63;;;7.60;66.90;;;;;;5072766;28;20028;-72
2022/04/27 03:43:02;;;;;;;5.43;3.03;;;7.60;66.90;;;;;;5078555;28;20063;-72
2022/04/27 03:45:28;;;;;;;4.65;3.08;;;7.50;66.90;;;;;;5088500;28;20056;-73
2022/04/27 03:47:54;;;;;;;4.65;2.95;;;7.40;67.00;;;;;;5085813;28;20040;-72
2022/04/27 03:50:19;;;;;;;5.28;2.97;;;7.40;67.10;;;;;;5078313;28;20473;-73
2022/04/27 03:52:45;;;;;;;4.38;2.63;;;7.40;67.20;;;;;;5088536;28;20030;-71
2022/04/27 03:55:11;;;;;;;5.95;3.50;;;7.40;67.30;;;;;;5086517;28;20039;-71
2022/04/27 03:57:37;;;;;;;4.10;3.25;;;7.40;67.40;;;;;;5082991;28;20103;-71
2022/04/27 04:00:05;;;;;;;5.63;3.15;;;7.30;67.30;;;;;;5090524;28;20457;-70
2022/04/27 04:02:30;;;;;;;6.25;3.25;;;7.30;67.40;;;;;;5091112;28;20062;-72
2022/04/27 04:04:56;;;;;;;4.32;3.05;;;7.20;67.60;;;;;;5091918;28;20499;-72
2022/04/27 04:07:21;;;;;;;5.22;3.70;;;7.20;67.80;;;;;;5088099;28;20600;-70
2022/04/27 04:09:47;;;;;;;5.03;3.35;;;7.10;67.90;;;;;;5090088;28;20484;-70
2022/04/27 04:12:13;;;;;;;4.68;3.15;;;7.10;67.80;;;;;;5088001;28;20034;-70
2022/04/27 04:14:39;;;;;;;5.05;2.88;;;7.10;67.80;;;;;;5089007;28;20028;-70
2022/04/27 04:17:05;;;;;;;5.32;3.05;;;7.00;67.90;;;;;;5091129;28;20024;-72
2022/04/27 04:19:32;;;;;;;6.57;3.35;;;7.00;68.10;;;;;;5085841;28;20034;-71
2022/04/27 04:21:59;;;;;;;6.03;3.08;;;7.00;68.10;;;;;;5084299;28;20366;-70
2022/04/27 04:24:25;;;;;;;6.15;3.50;;;7.00;68.10;;;;;;5089435;28;20664;-69
2022/04/27 04:29:34;;;;;;;4.55;3.25;;;7.00;68.10;;;;;;5086809;28;20133;-70
2022/04/27 04:32:01;;;;;;;5.28;3.53;;;6.90;68.10;;;;;;5092230;28;20474;-70
2022/04/27 04:34:27;;;;;;;6.22;3.72;;;6.90;68.20;;;;;;5092690;28;20106;-69
2022/04/27 04:36:52;;;;;;;6.38;3.97;;;6.90;68.30;;;;;;5092298;28;20104;-70
2022/04/27 04:39:18;;;;;;;9.18;4.10;;;6.90;68.30;;;;;;5088851;28;20031;-69
2022/04/27 04:41:43;;;;;;;5.70;3.60;;;6.90;68.20;;;;;;5084977;28;20035;-69
2022/04/27 04:44:09;;;;;;;3.83;3.17;;;6.90;68.20;;;;;;5088453;28;20020;-69
2022/04/27 04:46:34;;;;;;;3.88;3.35;;;6.90;68.10;;;;;;5088719;28;20027;-69
2022/04/27 04:49:00;;;;;;;4.55;3.58;;;6.90;68.00;;;;;;5091718;28;20063;-71
2022/04/27 04:51:25;;;;;;;5.00;3.50;;;6.90;68.10;;;;;;5087933;28;20028;-69
2022/04/27 04:53:51;;;;;;;7.30;3.72;;;6.90;68.00;;;;;;5088676;28;20036;-71
2022/04/27 04:56:16;;;;;;;4.32;3.17;;;7.00;68.00;;;;;;5083095;28;20038;-72
2022/04/27 04:58:42;;;;;;;6.35;3.58;;;7.00;67.90;;;;;;5090455;28;20016;-70
2022/04/27 05:01:07;;;;;;;5.30;3.30;;;7.00;67.90;;;;;;5089348;28;20020;-71
2022/04/27 05:03:36;;;;;;;5.43;3.53;;;7.00;67.90;;;;;;5080443;28;20801;-71
2022/04/27 05:06:02;;;;;;;5.47;3.80;;;7.10;67.90;;;;;;5086883;28;20092;-71
2022/04/27 05:08:28;;;;;;;4.50;3.72;;;7.00;67.90;;;;;;5091180;28;20024;-69
2022/04/27 05:10:54;;;;;;;5.28;3.25;;;7.10;68.00;;;;;;5089857;28;20791;-69
2022/04/27 05:13:19;;;;;;;4.93;3.20;;;7.10;68.00;;;;;;5091362;28;20020;-69
2022/04/27 05:15:45;;;;;;;5.03;3.40;;;7.10;67.90;;;;;;5090244;28;20103;-71
2022/04/27 05:18:10;;;;;;;5.57;3.35;;;7.10;67.80;;;;;;5089814;28;20023;-70
2022/04/27 05:20:38;;;;;;;5.28;3.40;;;7.20;67.70;;;;;;5087807;28;20052;-69
2022/04/27 05:23:04;;;;;;;4.75;3.70;;;7.20;67.90;;;;;;5081264;28;20432;-69
2022/04/27 05:25:30;;;;;;;5.75;3.38;;;7.20;67.40;;;;;;5086821;28;20028;-70
2022/04/27 05:27:56;;;;;;;4.68;3.90;;;7.30;67.30;;;;;;5084729;28;20024;-70
2022/04/27 05:33:06;;;;;;;5.80;4.22;;;8.10;67.40;;;;;;5086789;28;20125;-70
2022/04/27 05:35:39;;;;;;;4.95;3.50;;;9.70;64.40;;;;;;5082189;28;20470;-71
2022/04/27 05:38:05;;;;;;;5.80;3.85;;;11.20;61.10;;;;;;5090797;28;20505;-73
2022/04/27 05:40:30;;;;;;;6.28;4.07;;;12.30;58.30;;;;;;5089067;28;20021;-72
2022/04/27 05:42:56;;;;;;;5.38;3.70;;;13.40;56.00;;;;;;5090341;28;20039;-73
2022/04/27 05:45:22;;;;;;;5.53;3.70;;;14.30;54.00;;;;;;5089828;28;20019;-72
2022/04/27 05:47:48;;;;;;;6.03;3.45;;;15.10;52.20;;;;;;5090444;28;20084;-72
2022/04/27 05:50:13;;;;;;;5.18;3.60;;;15.60;51.00;;;;;;5089834;28;20054;-69
2022/04/27 05:52:52;;;;;;;4.78;3.60;;;16.10;50.00;;;;;;5089937;28;20112;-69
2022/04/27 05:55:19;;;;;;;6.15;4.07;;;16.80;48.50;;;;;;5089762;28;20032;-69
2022/04/27 05:57:44;;;;;;;6.05;3.72;;;17.30;47.30;;;;;;5090246;28;20103;-70
2022/04/27 06:00:11;;;;;;;5.72;3.92;;;17.60;46.60;;;;;;5087263;28;20103;-70
2022/04/27 06:02:36;;;;;;;4.75;3.63;;;17.90;46.00;;;;;;5084617;28;20056;-70
2022/04/27 06:05:02;;;;;;;5.13;3.50;;;18.30;45.30;;;;;;5087691;28;20056;-70
2022/04/27 06:07:27;;;;;;;4.93;3.75;;;18.70;44.40;;;;;;5087814;28;20081;-70
2022/04/27 06:09:53;;;;;;;4.65;3.65;;;19.20;43.70;;;;;;5088779;28;20028;-72
2022/04/27 06:12:18;;;;;;;4.45;3.35;;;19.60;43.00;;;;;;5085269;28;20035;-72
2022/04/27 06:14:44;;;;;;;4.70;3.22;;;20.00;42.40;;;;;;5086767;28;20023;-71
2022/04/27 06:17:09;;;;;;;5.45;3.60;;;20.50;41.60;;;;;;5088137;28;20382;-69
2022/04/27 06:19:35;;;;;;;5.22;3.47;;;20.90;40.90;;;;;;5091244;28;20633;-70
2022/04/27 06:22:00;;;;;;;3.95;2.95;;;21.40;40.20;;;;;;5087537;28;20038;-69
2022/04/27 06:24:28;;;;;;;5.25;3.30;;;21.80;39.60;;;;;;5087798;28;20024;-69
2022/04/27 06:26:54;;;;;;;3.97;2.67;;;22.10;39.00;;;;;;5085089;28;20680;-70
2022/04/27 06:29:20;;;;;;;3.20;1.85;;;22.60;38.60;;;;;;5088945;28;20028;-70
2022/04/27 06:31:46;;;;;;;2.47;2.10;;;22.70;38.30;;;;;;5084180;28;20032;-70
2022/04/27 06:34:12;;;;;;;4.35;2.35;;;22.30;37.80;;;;;;5088736;28;20525;-71
2022/04/27 06:36:39;;;;;;;4.32;2.35;;;21.60;37.70;;;;;;5088132;28;20043;-69
2022/04/27 06:39:07;;;;;;;4.43;2.20;;;21.10;38.40;;;;;;5088499;28;20019;-69
2022/04/27 06:41:32;;;;;;;5.22;2.50;;;20.90;38.90;;;;;;5085182;28;20382;-69
2022/04/27 06:43:58;;;;;;;4.55;2.80;;;20.50;39.40;;;;;;5087706;28;20016;-69
2022/04/27 06:46:24;;;;;;;4.57;2.65;;;20.30;39.60;;;;;;5085485;28;20054;-70
2022/04/27 06:48:52;;;;;;;3.33;1.95;;;20.50;40.00;;;;;;5083793;28;20113;-73
2022/04/27 06:51:18;;;;;;;4.18;2.10;;;21.10;39.60;;;;;;5085941;28;20024;-70
2022/04/27 06:53:45;;;;;;;6.45;3.00;;;21.40;39.00;;;;;;5085395;28;20024;-70
2022/04/27 06:56:10;;;;;;;3.90;2.40;;;21.00;38.80;;;;;;5086641;28;20048;-71
2022/04/27 06:58:35;;;;;;;5.97;2.33;;;21.40;38.60;;;;;;5088569;28;20055;-69
2022/04/27 07:01:03;;;;;;;3.83;2.17;;;21.30;37.80;;;;;;5088674;28;20099;-69
2022/04/27 07:03:31;;;;;;;4.55;2.30;;;20.90;37.90;;;;;;5086774;28;20397;-71
2022/04/27 07:05:57;;;;;;;4.28;2.80;;;20.70;38.20;;;;;;5086723;28;20052;-70
2022/04/27 07:08:24;;;;;;;3.47;2.35;;;20.60;38.80;;;;;;5087933;28;20064;-69
2022/04/27 07:10:49;;;;;;;3.70;1.88;;;20.80;38.50;;;;;;5087660;28;20048;-69
2022/04/27 07:13:15;;;;;;;4.88;2.67;;;21.00;38.30;;;;;;5083042;28;20070;-69
2022/04/27 07:15:41;;;;;;;5.40;2.88;;;21.40;38.00;;;;;;5084606;28;20499;-69
2022/04/27 07:18:06;;;;;;;4.28;2.20;;;21.40;37.50;;;;;;5086269;28;20046;-70
2022/04/27 07:20:32;;;;;;;3.90;2.40;;;21.40;37.60;;;;;;5084886;28;20399;-70
2022/04/27 07:22:57;;;;;;;3.28;1.77;;;20.90;37.50;;;;;;5086684;28;20489;-70
2022/04/27 07:25:23;;;;;;;4.05;2.22;;;20.90;38.20;;;;;;5087096;28;20040;-70
2022/04/27 07:27:48;;;;;;;4.65;3.05;;;21.30;37.70;;;;;;5084926;28;20054;-71
2022/04/27 07:30:14;;;;;;;4.40;2.00;;;21.70;36.40;;;;;;5085736;28;20028;-70
2022/04/27 07:32:40;;;;;;;3.22;2.22;;;21.50;36.60;;;;;;5089762;28;20020;-68
2022/04/27 07:35:06;;;;;;;4.70;2.50;;;22.00;36.30;;;;;;5091138;28;20653;-69
2022/04/27 07:37:32;;;;;;;3.45;2.40;;;22.10;35.90;;;;;;5090293;28;20103;-69
2022/04/27 07:39:58;;;;;;;6.05;2.45;;;21.90;35.60;;;;;;5089036;28;20092;-69
2022/04/27 07:42:23;;;;;;;4.15;2.00;;;22.10;35.90;;;;;;5088083;28;20101;-69
2022/04/27 07:44:49;;;;;;;4.00;2.50;;;22.60;35.50;;;;;;5089389;28;20020;-69
2022/04/27 07:47:15;;;;;;;3.13;1.90;;;22.70;35.00;;;;;;5086601;28;20524;-69
2022/04/27 07:49:41;;;;;;;3.13;2.10;;;22.90;35.30;;;;;;5087569;28;20081;-69
2022/04/27 07:52:06;;;;;;;5.38;2.17;;;22.50;35.30;;;;;;5088531;28;20032;-67
2022/04/27 07:54:32;;;;;;;6.80;2.70;;;22.30;35.20;;;;;;5087928;28;20028;-70
2022/04/27 07:56:58;;;;;;;3.90;2.13;;;21.60;34.70;;;;;;5089279;28;20016;-69
2022/04/27 07:59:23;;;;;;;3.25;1.48;;;20.70;37.20;;;;;;5090585;28;20024;-68
2022/04/27 08:01:49;;;;;;;3.42;2.00;;;20.60;37.80;;;;;;5091823;28;20063;-69
2022/04/27 08:04:16;;;;;;;3.65;2.10;;;20.30;38.00;;;;;;5092548;28;20043;-69
2022/04/27 08:06:42;;;;;;;5.80;2.30;;;20.10;38.50;;;;;;5091956;28;20670;-69
2022/04/27 08:09:07;;;;;;;3.58;2.42;;;19.60;39.30;;;;;;5091965;28;20149;-69
2022/04/27 08:11:33;;;;;;;4.43;2.83;;;19.30;39.70;;;;;;5092422;28;20051;-69
2022/04/27 08:13:58;;;;;;;3.67;2.40;;;18.90;40.00;;;;;;5091991;28;20020;-70
2022/04/27 08:16:24;;;;;;;3.05;2.00;;;18.40;40.50;;;;;;5091238;28;20020;-68
2022/04/27 08:18:50;;;;;;;3.47;2.40;;;18.10;41.20;;;;;;5092320;28;20104;-70
2022/04/27 08:21:15;;;;;;;5.65;2.38;;;17.30;40.80;;;;;;5092192;28;20027;-70
2022/04/27 08:23:46;;;;;;;4.18;2.33;;;16.80;42.40;;;;;;5091736;28;20098;-70
2022/04/27 08:26:12;;;;;;;4.07;2.13;;;16.50;43.10;;;;;;5091477;28;20047;-70
2022/04/27 08:28:39;;;;;;;2.90;1.65;;;16.50;43.50;;;;;;5091516;28;20547;-70
2022/04/27 08:31:05;;;;;;;3.45;2.20;;;16.60;43.50;;;;;;5091204;28;20036;-70
2022/04/27 08:33:31;;;;;;;4.43;2.10;;;16.30;43.40;;;;;;5091709;28;20024;-69
2022/04/27 08:36:00;;;;;;;2.80;1.90;;;16.00;44.00;;;;;;5091633;28;20382;-70
2022/04/27 08:38:27;;;;;;;3.33;2.10;;;15.70;44.50;;;;;;5091228;28;20055;-70
2022/04/27 08:40:54;;;;;;;3.70;1.77;;;15.30;44.90;;;;;;5091413;28;20030;-71
2022/04/27 08:43:21;;;;;;;4.30;2.05;;;15.20;45.50;;;;;;5090190;28;20424;-70
2022/04/27 08:45:47;;;;;;;3.30;1.80;;;15.30;45.70;;;;;;5088678;28;20077;-70
2022/04/27 08:48:14;;;;;;;4.03;2.08;;;15.30;45.70;;;;;;5091661;28;20027;-70
2022/04/27 08:50:40;;;;;;;2.45;1.60;;;15.30;45.60;;;;;;5091554;28;20783;-70
2022/04/27 08:53:07;;;;;;;6.28;2.00;;;15.30;45.20;;;;;;5091808;28;20398;-70
2022/04/27 08:55:35;;;;;;;3.55;1.88;;;15.10;45.20;;;;;;5091209;28;20054;-70
2022/04/27 08:58:15;;;;;;;3.25;1.65;;;15.00;45.50;;;;;;5091829;28;20028;-69
2022/04/27 09:00:43;;;;;;;3.08;1.73;;;15.10;45.60;;;;;;5089015;28;20024;-69
2022/04/27 09:03:22;;;;;;;3.92;1.75;;;15.10;45.50;;;;;;5089746;28;20104;-69
2022/04/27 09:05:50;;;;;;;2.95;1.90;;;15.30;45.50;;;;;;5080678;28;20020;-69
2022/04/27 09:08:16;;;;;;;2.28;1.48;;;15.40;44.90;;;;;;5076813;28;20110;-69
2022/04/27 09:10:41;;;;;;;3.53;1.70;;;15.30;45.00;;;;;;5090821;28;20594;-70
2022/04/27 09:13:07;;;;;;;3.28;1.75;;;15.30;45.00;;;;;;5090575;28;20032;-69
2022/04/27 09:15:32;;;;;;;3.25;2.00;;;15.20;45.00;;;;;;5091149;28;20020;-69
2022/04/27 09:20:52;;;;;;;3.10;1.63;;;15.10;45.00;;;;;;5091212;28;20043;-70
2022/04/27 09:23:32;;;;;;;5.03;1.60;;;15.10;45.50;;;;;;5091402;28;20024;-70
2022/04/27 09:26:12;;;;;;;3.85;1.90;;;15.20;45.60;;;;;;5091055;28;20044;-69
2022/04/27 09:28:37;;;;;;;2.13;1.50;;;15.20;45.20;;;;;;5089588;28;20032;-69
2022/04/27 09:31:03;;;;;;;3.63;1.70;;;15.20;45.40;;;;;;5089775;28;20110;-68
2022/04/27 09:33:32;;;;;;;2.75;1.38;;;15.10;45.20;;;;;;5089859;28;20717;-68
2022/04/27 09:35:59;;;;;;;2.67;1.60;;;15.00;45.20;;;;;;5089407;28;20028;-68
2022/04/27 09:38:24;;;;;;;3.53;1.73;;;15.00;45.20;;;;;;5088890;28;20093;-68
2022/04/27 09:40:55;;;;;;;5.38;2.45;;;14.90;45.20;;;;;;5089240;28;20102;-68
2022/04/27 09:43:42;;;;;;;3.15;1.88;;;14.90;45.00;;;;;;5089757;28;20032;-69
2022/04/27 09:46:22;;;;;;;2.92;1.55;;;14.90;45.20;;;;;;5087133;28;20020;-68
2022/04/27 09:49:07;;;;;;;3.05;1.88;;;15.10;45.10;;;;;;5088078;28;20036;-68
2022/04/27 09:51:34;;;;;;;5.47;2.60;;;15.30;44.80;;;;;;5090444;28;20047;-68
2022/04/27 09:54:01;;;;;;;3.08;1.80;;;15.40;44.70;;;;;;5090252;28;20077;-68
2022/04/27 09:56:32;;;;;;;3.28;1.70;;;15.60;44.70;;;;;;5090436;28;20032;-68
2022/04/27 09:59:03;;;;;;;3.75;1.80;;;15.80;44.50;;;;;;5091258;28;20077;-67
2022/04/27 10:01:35;;;;;;;3.50;2.00;;;16.00;43.70;;;;;;5090628;28;20386;-68
2022/04/27 10:04:03;;;;;;;4.35;2.08;;;16.20;43.10;;;;;;5089337;28;20024;-68
2022/04/27 10:06:30;;;;;;;2.50;1.77;;;16.20;42.90;;;;;;5090600;28;20084;-68
2022/04/27 10:08:59;;;;;;;4.25;2.33;;;16.30;42.90;;;;;;5090276;28;20047;-68
2022/04/27 10:11:27;;;;;;;4.13;1.77;;;16.40;42.10;;;;;;5090294;28;20024;-69
2022/04/27 10:13:54;;;;;;;2.65;1.70;;;16.50;42.00;;;;;;5089402;28;20506;-68
2022/04/27 10:16:21;;;;;;;6.47;3.05;;;16.50;42.40;;;;;;5089506;28;20024;-69
2022/04/27 10:18:47;;;;;;;3.08;1.90;;;16.50;41.70;;;;;;5088704;28;20028;-69
2022/04/27 10:21:14;;;;;;;3.28;1.63;;;16.40;42.40;;;;;;5089137;28;20108;-68
2022/04/27 10:23:43;;;;;;;3.78;1.67;;;16.60;42.40;;;;;;5089582;28;20093;-68
2022/04/27 10:26:15;;;;;;;3.83;1.70;;;16.50;41.20;;;;;;5089582;28;20035;-69
2022/04/27 10:28:56;;;;;;;2.47;1.40;;;16.30;42.00;;;;;;5088946;28;20077;-68
2022/04/27 10:31:53;;;;;;;1.77;1.27;;;16.20;42.30;;;;;;5089204;28;20752;-68
2022/04/27 10:34:23;;;;;;;4.03;1.60;;;16.30;42.50;;;;;;5086210;28;20059;-68
2022/04/27 10:36:50;;;;;;;5.55;2.45;;;16.10;42.00;;;;;;5088701;28;20035;-69
2022/04/27 10:39:19;;;;;;;4.38;1.80;;;15.90;42.60;;;;;;5089866;28;20067;-68
2022/04/27 10:42:02;;;;;;;2.67;1.45;;;16.00;43.10;;;;;;5088825;28;20546;-70
2022/04/27 10:44:58;;;;;;;2.53;1.60;;;15.90;42.60;;;;;;5086258;28;20077;-68
2022/04/27 10:47:23;;;;;;;3.05;1.45;;;15.80;42.90;;;;;;5087843;28;20089;-68
2022/04/27 10:50:09;;;;;;;2.08;1.38;;;15.90;43.10;;;;;;5088963;28;20036;-67
2022/04/27 10:52:51;;;;;;;3.53;1.60;;;16.00;43.30;;;;;;5081312;28;20055;-70
2022/04/27 10:55:35;;;;;;;1.65;1.38;;;16.00;42.80;;;;;;5086167;28;20471;-68
2022/04/27 10:58:12;;;;;;;3.00;1.73;;;16.00;43.20;;;;;;5087525;28;20013;-68
2022/04/27 11:01:02;;;;;;;3.33;1.77;;;16.10;43.10;;;;;;5088590;28;20020;-68
2022/04/27 11:03:35;;;;;;;3.35;1.80;;;16.20;43.00;;;;;;5088261;28;20027;-68
2022/04/27 11:06:08;;;;;;;3.33;1.92;;;16.30;42.60;;;;;;5091975;28;20048;-68
2022/04/27 11:08:47;;;;;;;3.05;1.55;;;16.50;42.20;;;;;;5092029;28;20027;-68
2022/04/27 11:11:16;;;;;;;3.58;1.92;;;16.70;42.00;;;;;;5090412;28;20020;-67
2022/04/27 11:13:42;;;;;;;2.65;1.73;;;16.80;40.90;;;;;;5091794;28;20106;-69
2022/04/27 11:16:08;;;;;;;3.58;1.63;;;16.80;40.80;;;;;;5091182;28;20016;-68
2022/04/27 11:18:59;;;;;;;1.88;1.40;;;16.90;41.40;;;;;;5092091;28;20689;-73
2022/04/27 11:21:28;;;;;;;3.80;1.90;;;17.20;41.10;;;;;;5091067;28;20359;-69
2022/04/27 11:23:55;;;;;;;4.65;1.60;;;17.30;40.70;;;;;;5090950;28;20771;-69
2022/04/27 11:26:20;;;;;;;3.88;2.20;;;17.40;40.60;;;;;;5092794;28;20055;-68
2022/04/27 11:28:47;;;;;;;2.40;1.50;;;17.50;40.30;;;;;;5088180;28;20675;-68
2022/04/27 11:31:14;;;;;;;2.63;1.60;;;17.50;40.00;;;;;;5092100;28;20035;-69
2022/04/27 11:33:40;;;;;;;1.95;1.40;;;17.60;40.20;;;;;;5090843;28;20032;-70
2022/04/27 11:36:07;;;;;;;2.40;1.50;;;17.90;40.20;;;;;;5090351;28;20032;-69
2022/04/27 11:38:35;;;;;;;1.90;1.10;;;17.90;39.70;;;;;;5087533;28;20141;-68
2022/04/27 11:41:02;;;;;;;2.22;1.30;;;18.10;39.70;;;;;;5091574;28;20051;-69
2022/04/27 11:43:29;;;;;;;2.53;1.63;;;18.30;39.50;;;;;;5090030;28;20042;-69
2022/04/27 11:45:55;;;;;;;2.85;1.55;;;18.40;39.20;;;;;;5088895;28;20028;-70
2022/04/27 11:48:22;;;;;;;2.13;1.50;;;18.40;38.70;;;;;;5091862;28;20028;-69
2022/04/27 11:50:48;;;;;;;3.13;1.60;;;18.40;38.40;;;;;;5091912;28;20525;-68
2022/04/27 11:53:15;;;;;;;4.55;1.73;;;18.40;38.40;;;;;;5093343;28;20058;-69
2022/04/27 11:55:45;;;;;;;2.47;1.80;;;18.40;38.30;;;;;;5090981;28;20032;-69
2022/04/27 11:58:21;;;;;;;2.13;1.40;;;18.40;37.50;;;;;;5091994;28;20028;-69
2022/04/27 12:00:46;;;;;;;2.78;1.40;;;18.50;37.80;;;;;;5086801;28;20539;-69
2022/04/27 12:03:12;;;;;;;2.67;1.70;;;18.80;37.50;;;;;;5091447;28;20020;-69
2022/04/27 12:05:38;;;;;;;3.50;1.50;;;18.80;36.20;;;;;;5089779;28;20032;-70
2022/04/27 12:08:09;;;;;;;1.42;1.30;;;18.60;37.00;;;;;;5072518;28;20035;-70
2022/04/27 12:10:39;;;;;;;2.90;1.40;;;18.80;37.30;;;;;;5088549;28;20047;-69
2022/04/27 12:13:05;;;;;;;3.13;1.27;;;18.80;36.50;;;;;;5083034;28;20032;-70
2022/04/27 12:15:31;;;;;;;2.80;1.33;;;19.10;36.90;;;;;;5082775;28;20702;-69
2022/04/27 12:17:58;;;;;;;2.53;1.25;;;19.20;36.40;;;;;;5090556;28;20095;-69
2022/04/27 12:20:36;;;;;;;2.45;1.50;;;19.50;36.40;;;;;;5091492;28;20099;-70
2022/04/27 12:23:08;;;;;;;4.18;1.80;;;19.70;36.10;;;;;;5089351;28;20109;-70
2022/04/27 12:25:35;;;;;;;2.70;2.00;;;19.90;35.60;;;;;;5090161;28;20024;-69
2022/04/27 12:28:05;;;;;;;3.15;1.52;;;19.50;36.00;;;;;;5090320;28;20028;-70
2022/04/27 12:30:31;;;;;;;2.65;1.48;;;19.70;36.60;;;;;;5089571;28;20048;-70
2022/04/27 12:32:57;;;;;;;2.38;1.30;;;19.80;36.70;;;;;;5090758;28;20502;-70
2022/04/27 12:38:19;;;;;;;3.90;1.90;;;19.80;36.30;;;;;;5091320;28;20398;-70
2022/04/27 12:40:45;;;;;;;3.95;1.95;;;19.70;36.60;;;;;;5090891;28;20017;-69
2022/04/27 12:43:13;;;;;;;4.30;2.15;;;19.60;36.60;;;;;;5090524;28;20024;-70
2022/04/27 12:45:39;;;;;;;3.17;2.13;;;19.50;35.80;;;;;;5090842;28;20043;-70
2022/04/27 12:48:05;;;;;;;3.53;1.52;;;19.10;36.60;;;;;;5090639;28;20525;-70
2022/04/27 12:50:45;;;;;;;3.33;2.03;;;19.40;37.10;;;;;;5087642;28;20094;-70
2022/04/27 12:53:11;;;;;;;3.63;2.00;;;19.70;36.20;;;;;;5089250;28;20394;-69
2022/04/27 12:55:38;;;;;;;3.53;1.90;;;19.90;35.80;;;;;;5089836;28;20034;-70
2022/04/27 12:58:03;;;;;;;2.42;2.00;;;19.80;35.40;;;;;;5091359;28;20035;-69
2022/04/27 13:00:46;;;;;;;4.05;2.28;;;20.00;35.50;;;;;;5087392;28;20099;-70
2022/04/27 13:03:14;;;;;;;3.15;1.90;;;20.00;34.90;;;;;;5087111;28;20101;-68
2022/04/27 13:05:40;;;;;;;3.45;1.65;;;19.90;35.00;;;;;;5087883;28;20107;-69
2022/04/27 13:08:10;;;;;;;3.35;2.00;;;20.00;34.90;;;;;;5089038;28;20517;-70